Time;durP1;ratioP1;P1;durP2;ratioP2;P2;SDS_P1;SDS_P2;PMS_P1;PMS_P2;Temp;Humidity;BMP_temperature;BMP_pressure;BME280_temperature;BME280_humidity;BME280_pressure;Samples;Min_cycle;Max_cycle;Signal;HPM_P1;HPM_P2
2021/06/29 00:00:39;;;;;;;7.63;4.97;;;;;;;22.96;67.65;99315.19;5194883;27;20384;-67
2021/06/29 00:03:30;;;;;;;5.32;4.40;;;;;;;22.92;67.68;99316.28;5195141;27;20381;-68
2021/06/29 00:06:21;;;;;;;7.00;4.85;;;;;;;22.86;67.91;99324.44;5195192;27;20384;-68
2021/06/29 00:09:13;;;;;;;5.38;4.63;;;;;;;22.79;67.97;99318.75;5194587;27;20385;-68
2021/06/29 00:12:03;;;;;;;5.75;4.80;;;;;;;22.76;68.17;99318.06;5195104;27;20404;-67
2021/06/29 00:15:01;;;;;;;6.03;4.95;;;;;;;22.72;67.97;99321.78;5060397;28;20395;-67
2021/06/29 00:17:58;;;;;;;6.25;4.60;;;;;;;22.68;68.34;99316.72;5131294;27;20417;-68
2021/06/29 00:20:49;;;;;;;5.95;4.78;;;;;;;22.66;68.46;99318.59;5195122;27;20727;-68
2021/06/29 00:23:40;;;;;;;6.30;5.03;;;;;;;22.64;68.35;99315.25;5195104;27;20854;-68
2021/06/29 00:26:31;;;;;;;6.03;4.53;;;;;;;22.61;68.50;99310.19;5195151;27;20854;-68
2021/06/29 00:29:26;;;;;;;6.72;4.70;;;;;;;22.59;68.50;99312.00;5134396;27;20398;-68
2021/06/29 00:32:18;;;;;;;7.07;4.85;;;;;;;22.56;68.44;99309.56;5195162;27;20381;-68
2021/06/29 00:35:11;;;;;;;8.60;5.07;;;;;;;22.56;68.49;99306.97;5195423;27;20385;-68
2021/06/29 00:38:01;;;;;;;6.30;4.72;;;;;;;22.55;68.30;99305.31;5195117;27;20723;-68
2021/06/29 00:40:53;;;;;;;6.55;4.70;;;;;;;22.52;68.38;99297.66;5195105;27;20842;-68
2021/06/29 00:43:50;;;;;;;6.70;5.43;;;;;;;22.51;68.43;99298.59;5134225;27;20393;-68
2021/06/29 00:46:45;;;;;;;6.32;4.85;;;;;;;22.48;68.58;99287.53;5134607;27;20393;-68
2021/06/29 00:49:43;;;;;;;6.47;4.70;;;;;;;22.45;68.48;99292.88;5131578;27;20558;-68
2021/06/29 00:52:33;;;;;;;6.43;5.05;;;;;;;22.44;68.74;99289.44;5194844;27;20393;-68
2021/06/29 00:55:24;;;;;;;5.82;4.38;;;;;;;22.44;68.75;99286.00;5195156;27;20393;-68
2021/06/29 00:58:15;;;;;;;6.85;5.07;;;;;;;22.45;68.69;99282.47;5195093;27;20388;-69
2021/06/29 01:01:05;;;;;;;7.60;5.03;;;;;;;22.44;68.57;99284.25;5195180;27;20377;-67
2021/06/29 01:03:56;;;;;;;6.10;4.35;;;;;;;22.43;68.76;99279.97;5194671;27;20373;-68
2021/06/29 01:06:48;;;;;;;5.53;4.50;;;;;;;22.41;68.52;99276.59;5195436;27;20392;-68
2021/06/29 01:09:47;;;;;;;5.70;4.55;;;;;;;22.36;68.94;99272.59;5131737;27;20397;-68
2021/06/29 01:12:39;;;;;;;8.93;5.07;;;;;;;22.34;68.65;99267.47;5194962;27;20874;-68
2021/06/29 01:15:37;;;;;;;6.57;5.03;;;;;;;22.29;68.88;99264.28;5130791;27;20413;-67
2021/06/29 01:18:27;;;;;;;5.20;4.07;;;;;;;22.27;69.01;99260.91;5195150;27;20388;-67
2021/06/29 01:21:21;;;;;;;6.55;4.95;;;;;;;22.15;69.22;99253.78;5195117;27;20377;-68
2021/06/29 01:24:16;;;;;;;7.72;4.72;;;;;;;22.16;69.36;99259.84;5194595;27;20388;-69
2021/06/29 01:33:21;;;;;;;5.20;4.53;;;;;;;22.08;69.44;99260.25;5195009;27;20370;-68
2021/06/29 01:36:17;;;;;;;6.53;4.60;;;;;;;22.01;69.47;99256.31;5134566;27;20408;-68
2021/06/29 01:39:16;;;;;;;5.50;4.60;;;;;;;21.89;69.69;99251.75;5131446;27;20428;-68
2021/06/29 01:42:16;;;;;;;5.22;4.13;;;;;;;21.78;69.96;99254.06;5131422;27;20484;-68
2021/06/29 01:45:12;;;;;;;6.22;5.00;;;;;;;21.74;70.16;99262.97;5133986;27;20403;-68
2021/06/29 01:48:04;;;;;;;7.88;5.50;;;;;;;21.69;70.15;99259.75;5195125;27;20388;-67
2021/06/29 01:50:57;;;;;;;5.93;4.45;;;;;;;21.65;70.31;99258.22;5195161;27;20381;-68
2021/06/29 01:53:50;;;;;;;6.32;4.63;;;;;;;21.61;70.43;99256.72;5195218;27;20385;-68
2021/06/29 01:56:41;;;;;;;6.43;4.47;;;;;;;21.59;70.35;99250.78;5195109;27;20378;-68
2021/06/29 01:59:32;;;;;;;6.60;4.60;;;;;;;21.63;70.48;99260.91;5195175;27;20381;-67
2021/06/29 02:02:23;;;;;;;7.38;4.90;;;;;;;21.64;70.28;99259.16;5195149;27;20386;-67
2021/06/29 02:05:14;;;;;;;5.90;4.75;;;;;;;21.63;70.34;99255.72;5194613;27;20392;-68
2021/06/29 02:08:05;;;;;;;5.97;4.88;;;;;;;21.63;70.33;99260.06;5195443;27;20384;-68
2021/06/29 02:10:56;;;;;;;6.57;4.72;;;;;;;21.48;70.41;99242.69;5195125;27;20377;-68
2021/06/29 02:13:47;;;;;;;6.07;4.95;;;;;;;21.57;70.49;99256.03;5195081;27;20381;-68
2021/06/29 02:16:38;;;;;;;6.68;4.75;;;;;;;21.60;70.27;99245.47;5194979;27;20377;-68
2021/06/29 02:19:29;;;;;;;6.30;4.45;;;;;;;21.60;70.22;99255.03;5195386;27;20444;-67
2021/06/29 02:22:20;;;;;;;7.53;5.07;;;;;;;21.55;70.18;99254.41;5195109;27;20846;-67
2021/06/29 02:25:12;;;;;;;8.90;5.10;;;;;;;21.51;70.34;99255.50;5194799;27;20384;-68
2021/06/29 02:28:04;;;;;;;7.80;4.95;;;;;;;21.50;70.29;99248.66;5195107;27;20389;-68
2021/06/29 02:30:54;;;;;;;7.82;5.18;;;;;;;21.43;70.67;99260.28;5195441;27;20390;-68
2021/06/29 02:33:55;;;;;;;5.78;4.80;;;;;;;21.43;70.62;99265.47;5124596;27;20528;-68
2021/06/29 02:36:50;;;;;;;7.03;4.90;;;;;;;21.38;70.56;99256.16;5134550;27;20403;-68
2021/06/29 02:39:42;;;;;;;6.90;5.38;;;;;;;21.43;70.66;99257.69;5195044;27;20396;-68
2021/06/29 02:42:33;;;;;;;5.80;4.70;;;;;;;21.40;70.64;99257.84;5195152;27;20381;-68
2021/06/29 02:45:24;;;;;;;8.40;5.07;;;;;;;21.41;70.91;99256.91;5195145;27;20385;-69
2021/06/29 02:48:19;;;;;;;7.15;4.68;;;;;;;21.45;70.81;99261.03;5135001;27;20841;-68
2021/06/29 02:51:12;;;;;;;7.70;5.40;;;;;;;21.49;70.58;99262.53;5149317;27;20408;-68
2021/06/29 02:54:03;;;;;;;6.07;4.60;;;;;;;21.49;70.49;99262.53;5195132;27;20381;-68
2021/06/29 02:56:54;;;;;;;8.27;5.20;;;;;;;21.48;70.38;99266.06;5195091;27;20377;-68
2021/06/29 02:59:45;;;;;;;5.57;4.55;;;;;;;21.44;70.46;99265.38;5194858;27;20389;-68
2021/06/29 03:02:36;;;;;;;6.78;5.30;;;;;;;21.46;70.54;99260.09;5195114;27;20396;-67
2021/06/29 03:05:27;;;;;;;6.70;4.70;;;;;;;21.48;70.42;99250.47;5195393;27;20381;-68
2021/06/29 03:08:18;;;;;;;7.13;5.63;;;;;;;21.45;70.36;99255.84;5195078;27;20388;-68
2021/06/29 03:11:16;;;;;;;6.55;4.85;;;;;;;21.45;70.64;99255.84;5131070;27;20401;-68
2021/06/29 03:14:07;;;;;;;8.00;5.30;;;;;;;21.44;70.85;99255.00;5195113;27;20378;-67
2021/06/29 03:16:57;;;;;;;7.57;5.18;;;;;;;21.52;70.52;99262.41;5195139;27;20381;-67
2021/06/29 03:19:50;;;;;;;7.25;5.18;;;;;;;21.52;70.21;99262.41;5195131;27;20734;-68
2021/06/29 03:22:41;;;;;;;7.70;5.45;;;;;;;21.57;70.35;99263.00;5195358;27;20723;-68
2021/06/29 03:25:32;;;;;;;7.53;5.00;;;;;;;21.65;70.26;99256.47;5195114;27;20862;-68
2021/06/29 03:28:24;;;;;;;8.13;4.82;;;;;;;21.67;69.83;99258.97;5195050;27;20854;-68
2021/06/29 03:31:23;;;;;;;7.60;5.32;;;;;;;21.73;69.63;99261.28;5130974;27;20394;-67
2021/06/29 03:34:15;;;;;;;6.28;5.03;;;;;;;21.78;69.60;99254.06;5195192;27;20380;-67
2021/06/29 03:37:10;;;;;;;7.90;5.22;;;;;;;21.75;69.73;99246.44;5134466;27;20393;-68
2021/06/29 03:40:01;;;;;;;8.55;4.82;;;;;;;21.83;69.42;99257.28;5195258;27;20726;-68
2021/06/29 03:42:52;;;;;;;8.18;5.35;;;;;;;21.89;69.46;99251.75;5153041;27;20397;-68
2021/06/29 03:45:43;;;;;;;8.30;5.15;;;;;;;21.95;68.93;99243.66;5195139;27;20850;-67
2021/06/29 03:48:35;;;;;;;6.75;5.32;;;;;;;22.00;69.05;99246.84;5195074;27;20846;-67
2021/06/29 03:51:27;;;;;;;6.70;5.32;;;;;;;22.02;68.95;99243.25;5195201;27;20386;-67
2021/06/29 03:54:18;;;;;;;8.38;5.72;;;;;;;22.12;68.68;99253.97;5195004;27;20386;-68
2021/06/29 03:57:09;;;;;;;8.30;5.80;;;;;;;22.17;68.69;99251.94;5194439;27;20381;-68
2021/06/29 04:00:09;;;;;;;7.60;5.25;;;;;;;22.26;68.40;99253.22;5131993;27;20723;-68
2021/06/29 04:03:01;;;;;;;7.00;5.28;;;;;;;22.38;68.04;99250.78;5195051;27;20869;-71
2021/06/29 04:05:52;;;;;;;7.50;5.28;;;;;;;22.44;67.95;99250.44;5194802;27;20377;-68
2021/06/29 04:08:49;;;;;;;8.38;5.18;;;;;;;22.50;67.94;99257.91;5131355;27;20882;-69
2021/06/29 04:11:40;;;;;;;7.15;5.10;;;;;;;22.51;67.71;99250.91;5195541;27;20385;-68
2021/06/29 04:14:31;;;;;;;6.88;5.00;;;;;;;22.62;67.14;99254.66;5195330;27;20718;-68
2021/06/29 04:17:22;;;;;;;7.55;5.43;;;;;;;22.77;67.16;99254.69;5195148;27;20846;-68
2021/06/29 04:20:14;;;;;;;8.52;5.40;;;;;;;22.93;66.87;99248.53;5195041;27;20719;-67
2021/06/29 04:23:06;;;;;;;8.05;5.47;;;;;;;23.08;66.42;99238.97;5195145;27;20388;-68
2021/06/29 04:25:57;;;;;;;10.05;6.05;;;;;;;23.15;65.76;99248.94;5195136;27;20381;-68
2021/06/29 04:28:48;;;;;;;8.13;6.15;;;;;;;23.21;65.36;99242.53;5195088;27;20385;-68
2021/06/29 04:31:39;;;;;;;10.55;6.35;;;;;;;23.40;65.02;99253.56;5195286;27;20385;-68
2021/06/29 04:34:30;;;;;;;9.38;5.97;;;;;;;23.58;64.45;99252.47;5195400;27;20715;-68
2021/06/29 04:37:21;;;;;;;16.70;7.22;;;;;;;23.68;63.83;99247.53;5195123;27;20384;-68
2021/06/29 04:40:13;;;;;;;18.70;6.20;;;;;;;23.88;63.65;99247.97;5194894;27;20866;-68
2021/06/29 04:43:05;;;;;;;11.02;6.28;;;;;;;24.22;62.99;99248.50;5195165;27;20380;-68
2021/06/29 04:45:55;;;;;;;10.30;5.88;;;;;;;24.48;62.33;99250.28;5195131;27;20388;-68
2021/06/29 04:48:46;;;;;;;11.13;6.20;;;;;;;24.64;61.48;99243.16;5195140;27;20389;-68
2021/06/29 04:51:37;;;;;;;24.58;6.90;;;;;;;24.66;61.21;99243.88;5194891;27;20377;-68
2021/06/29 04:54:35;;;;;;;15.48;7.00;;;;;;;24.78;60.82;99242.28;5131296;27;20425;-67
2021/06/29 04:57:27;;;;;;;11.10;6.10;;;;;;;24.79;60.48;99242.16;5195387;27;20726;-68
2021/06/29 05:00:21;;;;;;;12.77;5.95;;;;;;;24.97;60.11;99243.56;5153110;27;20427;-68
2021/06/29 05:03:23;;;;;;;17.83;6.18;;;;;;;25.17;59.85;99248.28;5124602;27;20400;-67
2021/06/29 05:06:15;;;;;;;11.45;5.93;;;;;;;25.28;58.88;99237.13;5194990;27;20723;-67
2021/06/29 05:09:06;;;;;;;12.15;6.47;;;;;;;25.39;58.31;99233.78;5195090;27;20382;-68
2021/06/29 05:11:58;;;;;;;9.15;5.25;;;;;;;25.48;57.98;99239.25;5194721;27;20388;-68
2021/06/29 05:14:53;;;;;;;8.77;5.40;;;;;;;25.63;57.85;99237.34;5172020;27;20436;-68
2021/06/29 05:17:52;;;;;;;8.20;5.45;;;;;;;25.71;57.67;99241.09;5131745;27;20720;-68
2021/06/29 05:20:42;;;;;;;9.20;6.18;;;;;;;25.83;57.58;99242.03;5195031;27;20873;-68
2021/06/29 05:23:23;;;;;;;8.32;5.95;;;;;;;25.96;57.30;99235.00;4526562;27;17965076;-69
2021/06/29 05:26:14;;;;;;;9.20;5.90;;;;;;;25.92;57.43;99236.16;5195123;27;20386;-68
2021/06/29 05:29:05;;;;;;;9.20;5.72;;;;;;;26.14;57.41;99236.34;5195145;27;20381;-68
2021/06/29 05:31:56;;;;;;;8.82;5.93;;;;;;;26.23;57.66;99243.50;5194791;27;20388;-68
2021/06/29 05:34:47;;;;;;;8.70;5.80;;;;;;;26.24;57.49;99239.97;5195098;27;20389;-68
2021/06/29 05:37:37;;;;;;;7.65;5.97;;;;;;;26.26;56.48;99232.84;5195006;27;20381;-69
2021/06/29 05:40:29;;;;;;;7.90;5.70;;;;;;;26.35;56.44;99242.63;5195364;27;20389;-68
2021/06/29 05:43:19;;;;;;;7.40;5.95;;;;;;;26.61;56.14;99233.72;5194569;27;20884;-68
2021/06/29 05:46:14;;;;;;;7.30;5.35;;;;;;;26.90;56.13;99234.22;5134558;27;20394;-69
2021/06/29 05:49:09;;;;;;;9.23;6.20;;;;;;;27.15;54.90;99223.56;5194529;27;20373;-68
2021/06/29 05:52:00;;;;;;;9.38;5.82;;;;;;;27.31;54.42;99227.66;5194940;27;20858;-69
2021/06/29 05:54:51;;;;;;;7.30;5.80;;;;;;;27.37;54.34;99225.38;5195092;27;20846;-68
2021/06/29 05:57:43;;;;;;;6.80;5.10;;;;;;;27.28;53.95;99231.34;5195106;27;20377;-68
2021/06/29 06:00:33;;;;;;;8.15;5.43;;;;;;;27.42;53.85;99227.69;5195106;27;20423;-69
2021/06/29 06:03:24;;;;;;;7.57;5.75;;;;;;;27.52;53.76;99231.28;5194634;27;20373;-68
2021/06/29 06:06:16;;;;;;;7.72;5.43;;;;;;;27.53;53.66;99232.94;5195111;27;20381;-68
2021/06/29 06:09:11;;;;;;;11.10;6.15;;;;;;;27.62;53.64;99230.44;5194593;27;20378;-70
2021/06/29 06:12:02;;;;;;;8.00;5.57;;;;;;;27.76;53.87;99230.19;5194683;27;20385;-68
2021/06/29 06:14:55;;;;;;;7.18;5.78;;;;;;;27.72;54.04;99228.75;5195076;27;20854;-68
2021/06/29 06:17:55;;;;;;;12.50;5.80;;;;;;;27.80;53.62;99234.25;5124027;27;20451;-68
2021/06/29 06:20:36;;;;;;;10.67;6.30;;;;;;;27.83;53.17;99228.75;4818626;27;11034750;-68
2021/06/29 06:23:28;;;;;;;6.45;5.57;;;;;;;27.75;53.10;99236.41;5195100;27;20377;-69
2021/06/29 06:26:19;;;;;;;9.38;5.82;;;;;;;27.77;53.18;99231.88;5194544;27;20384;-68
2021/06/29 06:29:10;;;;;;;9.00;5.45;;;;;;;27.92;53.08;99235.06;5194710;27;20588;-68
2021/06/29 06:32:02;;;;;;;9.73;6.55;;;;;;;28.15;53.16;99233.25;5195068;27;20868;-68
2021/06/29 06:35:03;;;;;;;9.15;6.10;;;;;;;28.42;52.72;99228.44;5124342;27;20750;-68
2021/06/29 06:37:53;;;;;;;7.40;5.60;;;;;;;28.55;51.95;99234.38;5194760;27;20388;-69
2021/06/29 06:40:43;;;;;;;7.90;5.20;;;;;;;28.65;51.48;99230.03;5195023;27;20850;-68
2021/06/29 06:43:34;;;;;;;7.10;5.57;;;;;;;28.81;51.36;99219.94;5194566;27;20373;-68
2021/06/29 06:46:25;;;;;;;6.35;5.25;;;;;;;28.98;51.09;99222.00;5194321;27;20396;-68
2021/06/29 06:49:16;;;;;;;7.63;5.45;;;;;;;28.99;50.20;99213.16;5194745;27;20392;-69
2021/06/29 06:52:14;;;;;;;7.00;5.28;;;;;;;29.15;50.11;99208.25;5130563;27;20398;-68
2021/06/29 06:55:06;;;;;;;8.45;5.82;;;;;;;29.29;49.81;99206.28;5177416;27;20713;-69
2021/06/29 06:57:58;;;;;;;7.80;5.15;;;;;;;29.45;49.93;99204.00;5195045;27;20381;-68
2021/06/29 07:00:48;;;;;;;9.13;6.03;;;;;;;29.62;50.01;99206.88;5195129;27;20381;-70
2021/06/29 07:03:40;;;;;;;7.03;5.75;;;;;;;29.91;49.98;99203.53;5194752;27;20388;-68
2021/06/29 07:06:30;;;;;;;6.43;5.45;;;;;;;30.02;49.56;99211.31;5195064;27;20392;-68
2021/06/29 07:09:22;;;;;;;7.03;4.95;;;;;;;30.16;49.18;99206.47;5194522;27;20381;-68
2021/06/29 07:12:13;;;;;;;7.38;5.10;;;;;;;30.28;49.19;99208.03;5194809;27;20746;-70
2021/06/29 07:15:07;;;;;;;8.05;5.25;;;;;;;30.41;49.09;99208.63;5194767;27;20393;-69
2021/06/29 07:17:59;;;;;;;6.38;4.38;;;;;;;30.47;47.97;99196.72;5194616;27;20865;-68
2021/06/29 07:20:52;;;;;;;5.97;4.38;;;;;;;30.46;47.13;99198.53;5194677;27;20377;-68
2021/06/29 07:23:33;;;;;;;7.00;4.97;;;;;;;30.35;48.26;99201.25;5132406;27;20383;-69
2021/06/29 07:26:16;;;;;;;6.68;4.72;;;;;;;30.33;48.11;99203.22;5145314;27;1425235;-69
2021/06/29 07:28:57;;;;;;;6.60;5.00;;;;;;;30.43;47.26;99201.41;5132256;27;20729;-68
2021/06/29 07:31:40;;;;;;;5.88;4.43;;;;;;;30.50;46.63;99194.63;5132218;27;20391;-68
2021/06/29 07:34:22;;;;;;;5.38;4.45;;;;;;;30.58;47.68;99196.56;5132105;27;20359;-69
2021/06/29 07:37:06;;;;;;;5.00;4.22;;;;;;;30.76;47.36;99188.81;5132716;27;20425;-70
2021/06/29 07:39:48;;;;;;;5.45;4.40;;;;;;;30.84;46.26;99194.19;5132924;27;20383;-69
2021/06/29 07:42:29;;;;;;;6.05;4.07;;;;;;;30.55;45.98;99190.75;5132246;27;20396;-70
2021/06/29 07:45:12;;;;;;;5.90;4.20;;;;;;;30.52;46.22;99196.31;5132183;27;20798;-69
2021/06/29 07:47:52;;;;;;;6.35;4.30;;;;;;;30.49;45.59;99192.13;5144637;27;1439005;-69
2021/06/29 07:50:40;;;;;;;4.57;3.58;;;;;;;30.56;46.08;99187.13;5132167;27;20375;-70
2021/06/29 07:53:22;;;;;;;6.15;4.25;;;;;;;30.39;45.48;99192.13;5132196;27;20703;-69
2021/06/29 07:56:14;;;;;;;4.82;3.60;;;;;;;30.58;45.30;99185.19;5132020;27;20733;-69
2021/06/29 07:58:56;;;;;;;5.95;3.97;;;;;;;30.92;44.69;99183.81;5132044;27;20396;-70
2021/06/29 08:01:38;;;;;;;5.80;4.10;;;;;;;31.27;43.92;99183.16;5131663;27;20375;-69
2021/06/29 08:04:23;;;;;;;5.47;3.90;;;;;;;31.60;43.19;99186.09;5125840;27;20140;-69
2021/06/29 08:07:05;;;;;;;5.40;3.83;;;;;;;31.91;42.52;99188.47;5129546;27;20405;-70
2021/06/29 08:09:46;;;;;;;6.50;4.00;;;;;;;31.91;42.43;99196.38;5129587;27;20416;-69
2021/06/29 08:12:29;;;;;;;5.63;3.50;;;;;;;32.07;42.39;99199.22;5131257;27;20380;-70
2021/06/29 08:15:12;;;;;;;5.15;4.03;;;;;;;32.05;42.03;99201.19;5120969;27;20736;-69
2021/06/29 08:17:55;;;;;;;4.93;3.70;;;;;;;32.03;41.96;99193.44;5116408;27;20401;-69
2021/06/29 08:20:36;;;;;;;5.00;3.60;;;;;;;32.25;41.71;99198.25;5135023;27;20391;-69
2021/06/29 08:23:18;;;;;;;4.57;3.47;;;;;;;31.82;41.01;99194.63;5132124;27;20383;-70
2021/06/29 08:25:59;;;;;;;5.68;3.42;;;;;;;32.03;41.29;99197.88;5113061;27;20893;-70
2021/06/29 08:28:40;;;;;;;5.55;3.28;;;;;;;32.28;40.55;99191.84;5144755;27;20398;-69
2021/06/29 08:31:22;;;;;;;4.30;3.28;;;;;;;32.14;41.19;99189.72;5131865;27;20368;-70
2021/06/29 08:34:03;;;;;;;5.25;3.60;;;;;;;32.31;41.28;99187.09;5132795;27;20378;-69
2021/06/29 08:36:44;;;;;;;5.07;3.58;;;;;;;32.31;41.00;99186.25;5131974;27;20371;-70
2021/06/29 08:39:26;;;;;;;5.30;3.63;;;;;;;31.98;41.19;99181.63;5132186;27;20379;-65
2021/06/29 08:42:08;;;;;;;5.95;3.30;;;;;;;32.20;41.05;99178.56;5132049;27;20865;-67
2021/06/29 08:44:49;;;;;;;4.85;3.40;;;;;;;32.32;40.42;99172.09;5132984;27;20352;-68
2021/06/29 08:47:34;;;;;;;4.03;3.20;;;;;;;32.44;39.29;99166.41;5132160;27;20729;-71
2021/06/29 08:50:18;;;;;;;6.25;3.50;;;;;;;32.53;39.16;99170.00;5132080;27;20372;-70
2021/06/29 08:53:00;;;;;;;4.20;3.30;;;;;;;32.69;40.35;99175.41;5131930;27;20383;-69
2021/06/29 08:55:45;;;;;;;4.15;3.10;;;;;;;32.99;39.86;99167.00;5131944;27;20370;-70
2021/06/29 08:58:27;;;;;;;5.03;3.70;;;;;;;32.94;39.92;99171.97;5132880;27;20364;-69
2021/06/29 09:01:12;;;;;;;8.10;3.80;;;;;;;32.90;40.25;99183.81;5132341;27;20368;-69
2021/06/29 09:03:57;;;;;;;5.45;3.00;;;;;;;33.14;40.26;99174.44;5132853;27;20372;-69
2021/06/29 09:06:40;;;;;;;4.68;3.33;;;;;;;33.18;38.75;99181.91;5131848;27;20741;-67
2021/06/29 09:09:27;;;;;;;4.00;3.10;;;;;;;33.06;39.32;99172.56;5131965;27;20375;-70
2021/06/29 09:12:11;;;;;;;5.88;3.60;;;;;;;33.32;39.79;99176.03;5132038;27;20388;-69
2021/06/29 09:14:53;;;;;;;6.40;3.45;;;;;;;33.60;39.45;99187.25;5132016;27;20432;-69
2021/06/29 09:17:39;;;;;;;5.90;3.50;;;;;;;33.60;39.08;99179.31;5132189;27;20367;-68
2021/06/29 09:20:28;;;;;;;5.20;3.58;;;;;;;33.33;37.78;99184.78;5132294;27;20371;-68
2021/06/29 09:23:12;;;;;;;4.45;3.47;;;;;;;32.97;38.14;99174.28;5132097;27;20371;-68
2021/06/29 09:25:55;;;;;;;5.82;3.45;;;;;;;33.18;38.08;99170.47;5132818;27;20379;-69
2021/06/29 09:28:38;;;;;;;4.75;3.55;;;;;;;33.24;38.46;99175.13;5132143;27;20371;-67
2021/06/29 09:31:22;;;;;;;4.53;3.50;;;;;;;33.38;37.38;99172.72;5132269;27;20382;-67
2021/06/29 09:33:53;;;;;;;5.95;3.50;;;;;;;33.23;37.24;99168.19;5131713;27;20046;-68
2021/06/29 09:36:38;;;;;;;4.18;3.42;;;;;;;33.17;37.99;99166.16;5132029;27;20394;-67
2021/06/29 09:39:20;;;;;;;6.20;3.72;;;;;;;33.10;38.21;99168.59;5124472;27;20412;-68
2021/06/29 09:42:06;;;;;;;4.75;3.80;;;;;;;33.21;38.44;99167.53;5131962;27;20383;-69
2021/06/29 09:44:48;;;;;;;6.32;3.53;;;;;;;33.21;38.70;99167.53;5131989;27;20376;-68
2021/06/29 09:47:29;;;;;;;6.13;3.80;;;;;;;33.00;38.67;99163.38;5132264;27;20866;-68
2021/06/29 09:50:39;;;;;;;5.90;3.58;;;;;;;33.07;38.44;99158.31;5132163;27;20368;-67
2021/06/29 09:53:25;;;;;;;4.30;3.30;;;;;;;33.09;38.00;99146.59;5132010;27;20390;-68
2021/06/29 09:56:12;;;;;;;4.50;3.38;;;;;;;33.36;38.10;99150.88;5132444;27;20364;-66
2021/06/29 09:58:54;;;;;;;4.25;3.60;;;;;;;33.00;36.87;99136.94;5132142;27;20367;-67
2021/06/29 10:01:36;;;;;;;5.05;3.40;;;;;;;33.25;37.68;99145.03;5132183;27;20360;-67
2021/06/29 10:04:18;;;;;;;4.60;3.83;;;;;;;33.22;37.29;99140.91;5132097;27;20372;-68
2021/06/29 10:07:13;;;;;;;9.18;4.13;;;;;;;33.45;36.91;99149.13;5132076;27;20363;-66
2021/06/29 10:10:18;;;;;;;6.60;3.70;;;;;;;33.19;37.56;99143.00;5131969;27;20372;-66
2021/06/29 10:13:15;;;;;;;6.15;4.10;;;;;;;33.14;37.10;99132.09;5131919;27;20380;-67
2021/06/29 10:15:57;;;;;;;5.18;3.58;;;;;;;33.09;38.62;99136.03;5132003;27;20733;-66
2021/06/29 10:18:43;;;;;;;4.88;4.00;;;;;;;32.91;38.18;99135.22;5132048;27;20386;-68
2021/06/29 10:21:26;;;;;;;6.85;4.20;;;;;;;33.05;38.84;99129.41;5132196;27;20379;-68
2021/06/29 10:24:10;;;;;;;5.20;3.95;;;;;;;33.09;38.23;99136.03;5132192;27;20384;-67
2021/06/29 10:26:56;;;;;;;4.53;3.65;;;;;;;33.32;37.64;99127.53;5132000;27;20368;-68
2021/06/29 10:29:38;;;;;;;4.97;3.78;;;;;;;33.57;36.72;99124.06;5132271;27;20368;-69
2021/06/29 10:32:19;;;;;;;4.55;3.90;;;;;;;33.24;37.62;99122.19;5131926;27;20376;-67
2021/06/29 10:35:02;;;;;;;4.72;3.65;;;;;;;33.55;38.01;99126.00;5132585;27;20371;-66
2021/06/29 10:37:43;;;;;;;5.18;3.80;;;;;;;33.65;38.22;99119.59;5132967;27;20368;-67
2021/06/29 10:40:25;;;;;;;4.88;3.88;;;;;;;33.66;37.66;99112.50;5132178;27;20352;-69
2021/06/29 10:43:07;;;;;;;4.55;3.60;;;;;;;33.89;37.03;99118.81;5132819;27;20384;-67
2021/06/29 10:45:52;;;;;;;5.05;3.80;;;;;;;33.88;36.45;99119.84;5132985;27;20369;-67
2021/06/29 10:48:34;;;;;;;5.32;3.90;;;;;;;33.63;35.69;99108.34;5132344;27;20447;-67
2021/06/29 10:51:35;;;;;;;5.88;4.03;;;;;;;33.57;36.45;99113.47;5132584;27;20386;-66
2021/06/29 10:54:42;;;;;;;5.05;3.90;;;;;;;33.47;37.17;99107.44;5131963;27;20372;-67
2021/06/29 10:57:25;;;;;;;5.18;4.07;;;;;;;33.90;37.10;99104.59;5131888;27;20374;-67
2021/06/29 11:00:24;;;;;;;5.03;4.15;;;;;;;34.36;36.30;99105.81;5132101;27;20375;-67
2021/06/29 11:03:08;;;;;;;4.93;3.80;;;;;;;34.30;36.06;99098.53;5133050;27;20383;-67
2021/06/29 11:06:02;;;;;;;5.07;4.25;;;;;;;34.12;36.31;99103.97;5132204;27;20768;-67
2021/06/29 11:08:50;;;;;;;4.95;4.00;;;;;;;34.24;35.63;99097.34;5131933;27;20393;-67
2021/06/29 11:11:32;;;;;;;4.93;4.20;;;;;;;34.09;35.93;99093.72;5132104;27;20376;-66
2021/06/29 11:14:28;;;;;;;5.43;4.13;;;;;;;34.08;36.09;99092.06;5131979;27;20370;-67
2021/06/29 11:17:10;;;;;;;5.72;4.38;;;;;;;34.19;36.50;99093.56;5132011;27;20873;-69
2021/06/29 11:20:13;;;;;;;5.45;4.40;;;;;;;34.27;35.66;99081.13;5131977;27;20392;-67
2021/06/29 11:23:03;;;;;;;7.15;4.45;;;;;;;34.59;35.26;99084.78;5145669;27;1409672;-68
2021/06/29 11:25:47;;;;;;;7.50;4.68;;;;;;;34.48;35.71;99083.28;5132807;27;20383;-66
2021/06/29 11:28:51;;;;;;;5.38;4.15;;;;;;;34.50;35.80;99073.34;5132130;27;20439;-68
2021/06/29 11:31:40;;;;;;;5.00;4.20;;;;;;;34.45;35.86;99077.47;5131818;27;20387;-68
2021/06/29 11:34:28;;;;;;;10.57;4.32;;;;;;;34.26;35.95;99084.78;5131904;27;20717;-67
2021/06/29 11:37:11;;;;;;;5.55;3.95;;;;;;;34.29;35.72;99084.44;5131773;27;20401;-66
2021/06/29 11:40:00;;;;;;;7.18;4.55;;;;;;;34.12;35.88;99071.38;5131999;27;20371;-68
2021/06/29 11:43:06;;;;;;;5.18;4.35;;;;;;;34.41;35.83;99068.22;5132166;27;20383;-67
2021/06/29 11:45:48;;;;;;;7.45;4.60;;;;;;;34.35;35.37;99057.28;5132154;27;20443;-67
2021/06/29 11:48:41;;;;;;;4.95;4.15;;;;;;;34.46;35.17;99056.09;5132199;27;20375;-66
2021/06/29 11:51:46;;;;;;;6.72;4.30;;;;;;;34.44;35.61;99054.59;5132816;27;20368;-67
2021/06/29 11:54:29;;;;;;;5.25;4.43;;;;;;;34.50;35.47;99038.88;5132506;27;20378;-67
2021/06/29 11:57:18;;;;;;;5.72;4.25;;;;;;;34.88;35.61;99038.13;5132262;27;20372;-66
2021/06/29 12:00:02;;;;;;;4.80;4.03;;;;;;;35.01;34.75;99045.53;5132041;27;20380;-66
2021/06/29 12:02:45;;;;;;;7.13;4.13;;;;;;;34.82;34.80;99033.50;5132088;27;20372;-67
2021/06/29 12:05:29;;;;;;;4.72;4.03;;;;;;;34.87;34.98;99027.69;5132077;27;20375;-68
2021/06/29 12:08:14;;;;;;;6.25;4.35;;;;;;;34.67;35.37;99023.78;5130698;27;20388;-68
2021/06/29 12:10:57;;;;;;;5.05;4.30;;;;;;;34.71;35.25;99017.13;5132075;27;20456;-66
2021/06/29 12:13:40;;;;;;;5.90;4.38;;;;;;;34.93;35.35;99025.19;5132539;27;20380;-68
2021/06/29 12:16:27;;;;;;;5.43;4.40;;;;;;;34.87;34.65;99017.06;5133018;27;20368;-68
2021/06/29 12:19:10;;;;;;;5.57;4.60;;;;;;;34.60;35.36;99013.00;5111203;27;20415;-67
2021/06/29 12:21:54;;;;;;;5.90;4.43;;;;;;;34.50;35.67;99016.81;5131969;27;20417;-69
2021/06/29 12:24:35;;;;;;;6.93;4.70;;;;;;;34.46;35.00;98999.63;5132006;27;20383;-67
2021/06/29 12:27:19;;;;;;;5.60;4.35;;;;;;;34.57;35.29;98992.16;5131983;27;20372;-69
2021/06/29 12:30:19;;;;;;;5.35;4.38;;;;;;;34.90;35.17;98998.16;5132400;27;20380;-69
2021/06/29 12:33:13;;;;;;;5.00;4.40;;;;;;;35.12;35.11;99005.41;5132032;27;20367;-68
2021/06/29 12:35:56;;;;;;;7.43;4.30;;;;;;;35.15;35.05;98997.09;5132012;27;20395;-68
2021/06/29 12:38:39;;;;;;;6.25;3.90;;;;;;;35.17;34.66;98984.47;5132727;27;20379;-69
2021/06/29 12:41:24;;;;;;;6.07;4.32;;;;;;;35.12;34.49;98984.16;5132896;27;20745;-68
2021/06/29 12:44:08;;;;;;;5.72;4.30;;;;;;;35.09;35.01;98975.72;5132006;27;20383;-69
2021/06/29 12:46:51;;;;;;;5.88;4.28;;;;;;;35.30;34.65;98960.81;5132272;27;20852;-69
2021/06/29 12:49:32;;;;;;;7.60;5.32;;;;;;;35.46;33.84;98966.03;5143461;27;1471198;-68
2021/06/29 12:52:14;;;;;;;6.28;4.57;;;;;;;35.38;34.05;98959.94;5132092;27;20845;-67
2021/06/29 12:55:06;;;;;;;5.63;4.32;;;;;;;35.34;34.25;98954.19;5132344;27;20384;-68
2021/06/29 12:57:48;;;;;;;7.15;4.68;;;;;;;35.26;34.91;98950.72;5131905;27;20387;-68
2021/06/29 13:00:29;;;;;;;7.07;4.93;;;;;;;34.51;35.87;98953.00;5132079;27;20370;-68
2021/06/29 13:03:11;;;;;;;5.50;4.65;;;;;;;34.39;36.13;98947.25;5132066;27;20398;-67
2021/06/29 13:06:15;;;;;;;9.52;5.18;;;;;;;34.86;35.61;98943.81;5131889;27;20872;-69
2021/06/29 13:09:10;;;;;;;7.63;4.25;;;;;;;35.05;35.31;98943.41;5131978;27;20376;-67
2021/06/29 13:11:57;;;;;;;5.85;4.78;;;;;;;35.17;35.32;98935.88;5134906;27;20768;-69
2021/06/29 13:14:53;;;;;;;5.82;4.43;;;;;;;35.18;34.70;98941.00;5139718;27;20399;-68
2021/06/29 13:17:47;;;;;;;5.90;4.53;;;;;;;34.76;35.40;98943.19;5139362;27;20395;-69
2021/06/29 13:20:30;;;;;;;7.22;4.75;;;;;;;34.48;35.84;98939.28;5138735;27;20860;-70